Time;durP1;ratioP1;P1;durP2;ratioP2;P2;SDS_P1;SDS_P2;PMS_P1;PMS_P2;Temp;Humidity;BMP_temperature;BMP_pressure;BME280_temperature;BME280_humidity;BME280_pressure;Samples;Min_cycle;Max_cycle;Signal;HPM_P1;HPM_P2
2023/04/14 00:02:09;;;;;;;5.37;3.10;;;;;;;2.91;100.00;100488.63;5026954;28;20029;-74
2023/04/14 00:04:34;;;;;;;11.43;3.67;;;;;;;2.94;100.00;100498.94;5026802;28;20298;-72
2023/04/14 00:07:00;;;;;;;7.80;2.80;;;;;;;2.88;100.00;100497.63;5026521;28;20041;-72
2023/04/14 00:09:25;;;;;;;4.78;2.30;;;;;;;2.81;100.00;100480.59;5027998;28;20033;-72
2023/04/14 00:11:51;;;;;;;5.60;3.40;;;;;;;2.81;100.00;100488.53;5028028;28;20474;-72
2023/04/14 00:14:16;;;;;;;4.50;2.72;;;;;;;2.82;100.00;100505.16;5027979;28;20033;-71
2023/04/14 00:16:42;;;;;;;4.40;2.67;;;;;;;2.76;100.00;100495.91;5028291;28;20041;-72
2023/04/14 00:19:08;;;;;;;5.38;2.90;;;;;;;2.73;100.00;100480.34;5026816;28;20485;-71
2023/04/14 00:21:33;;;;;;;11.63;3.93;;;;;;;2.72;100.00;100482.16;5037776;28;20041;-76
2023/04/14 00:23:58;;;;;;;4.70;3.33;;;;;;;2.68;100.00;100482.50;5027548;28;20361;-74
2023/04/14 00:26:24;;;;;;;7.53;3.83;;;;;;;2.62;100.00;100477.69;5026575;28;20104;-74
2023/04/14 00:28:49;;;;;;;5.23;2.90;;;;;;;2.57;100.00;100464.03;5037426;28;20128;-73
2023/04/14 00:31:15;;;;;;;9.70;3.38;;;;;;;2.54;100.00;100460.66;5026525;28;20037;-71
2023/04/14 00:33:40;;;;;;;6.30;3.45;;;;;;;2.46;100.00;100463.06;5025880;28;20044;-71
2023/04/14 00:36:06;;;;;;;8.20;4.30;;;;;;;2.46;100.00;100463.06;5021180;28;20025;-72
2023/04/14 00:38:31;;;;;;;7.45;4.03;;;;;;;2.46;100.00;100467.50;5037468;28;20033;-71
2023/04/14 00:40:57;;;;;;;9.70;3.85;;;;;;;2.41;100.00;100470.50;5026313;28;20088;-72
2023/04/14 00:43:22;;;;;;;6.13;3.47;;;;;;;2.41;100.00;100474.91;5026096;28;20120;-72
2023/04/14 00:45:49;;;;;;;7.27;3.97;;;;;;;2.37;100.00;100473.47;5009770;28;20560;-72
2023/04/14 00:48:17;;;;;;;11.13;4.35;;;;;;;2.33;100.00;100468.41;5037548;28;20286;-71
2023/04/14 00:50:44;;;;;;;6.32;3.80;;;;;;;2.33;100.00;100476.31;5027110;28;20113;-71
2023/04/14 00:53:11;;;;;;;7.38;3.92;;;;;;;2.30;100.00;100478.38;5042624;28;20029;-72
2023/04/14 00:55:37;;;;;;;10.77;4.40;;;;;;;2.28;100.00;100482.91;5040108;28;20091;-71
2023/04/14 00:58:03;;;;;;;;;;;;;;;2.25;100.00;100489.25;5037867;28;20029;-71
2023/04/14 01:00:29;;;;;;;12.63;3.75;;;;;;;2.28;100.00;100501.34;5025997;28;19913;-75
2023/04/14 01:02:55;;;;;;;8.23;3.67;;;;;;;2.17;100.00;100493.41;5021388;28;20033;-72
2023/04/14 01:05:20;;;;;;;9.77;4.22;;;;;;;2.13;100.00;100492.81;5009110;28;20394;-71
2023/04/14 01:07:47;;;;;;;8.70;4.97;;;;;;;2.11;100.00;100495.53;5025554;28;20604;-72
2023/04/14 01:10:13;;;;;;;11.55;5.43;;;;;;;2.15;100.00;100506.69;5019385;28;20033;-73
2023/04/14 01:12:45;;;;;;;7.85;3.92;;;;;;;2.07;100.00;100512.53;5026771;28;20033;-74
2023/04/14 01:15:16;;;;;;;10.90;4.28;;;;;;;2.01;100.00;100502.44;5026693;28;20463;-72
2023/04/14 01:18:02;;;;;;;8.90;3.92;;;;;;;1.95;100.00;100499.44;5006884;28;20375;-72
2023/04/14 01:20:43;;;;;;;8.88;4.30;;;;;;;1.87;100.00;100487.69;5022091;28;20179;-73
2023/04/14 01:23:18;;;;;;;8.10;3.83;;;;;;;1.86;100.00;100490.41;5041126;28;20048;-75
2023/04/14 01:26:23;;;;;;;6.57;3.73;;;;;;;1.86;100.00;100485.97;5025606;28;20033;-74
2023/04/14 01:29:05;;;;;;;10.43;4.32;;;;;;;1.87;100.00;100492.06;4930069;29;20111;-74
2023/04/14 01:31:47;;;;;;;6.88;3.42;;;;;;;1.85;100.00;100499.25;4946382;28;20043;-72
2023/04/14 01:34:21;;;;;;;6.38;3.78;;;;;;;1.82;100.00;100500.31;4945805;28;20027;-71
2023/04/14 01:37:12;;;;;;;10.65;4.22;;;;;;;1.82;100.00;100500.31;4945588;29;20062;-73
2023/04/14 01:39:40;;;;;;;13.35;4.40;;;;;;;1.81;100.00;100503.91;4940357;29;20041;-73
2023/04/14 01:42:14;;;;;;;12.80;6.35;;;;;;;1.87;100.00;100508.75;4946483;28;20030;-72
2023/04/14 01:44:41;;;;;;;9.80;3.88;;;;;;;1.79;100.00;100520.78;4945223;29;20062;-71
2023/04/14 01:47:09;;;;;;;9.00;4.53;;;;;;;1.71;100.00;100531.00;4946143;28;20055;-71
2023/04/14 01:49:38;;;;;;;14.38;5.28;;;;;;;1.67;100.00;100530.41;4945949;28;20523;-71
2023/04/14 01:52:10;;;;;;;10.95;4.15;;;;;;;1.59;100.00;100530.94;4951595;28;20593;-76
2023/04/14 01:54:41;;;;;;;13.40;4.50;;;;;;;1.61;100.00;100528.19;4927341;29;20044;-72
2023/04/14 01:57:11;;;;;;;7.25;4.10;;;;;;;1.60;100.00;100527.34;4946101;28;20543;-72
2023/04/14 01:59:40;;;;;;;7.72;4.35;;;;;;;1.51;100.00;100522.75;4945078;28;20147;-76
2023/04/14 02:02:09;;;;;;;11.10;5.18;;;;;;;1.53;100.00;100525.28;4964289;28;20497;-73
2023/04/14 02:04:36;;;;;;;12.48;5.50;;;;;;;1.55;100.00;100529.50;5008067;28;20044;-72
2023/04/14 02:07:04;;;;;;;9.20;4.60;;;;;;;1.49;100.00;100532.53;5025743;28;20029;-71
2023/04/14 02:09:31;;;;;;;9.95;4.30;;;;;;;1.45;100.00;100528.44;5024382;28;20030;-71
2023/04/14 02:11:58;;;;;;;7.47;4.60;;;;;;;1.50;100.00;100542.13;5020214;28;20025;-76
2023/04/14 02:14:25;;;;;;;8.82;5.20;;;;;;;1.50;100.00;100539.50;5007941;28;20039;-71
2023/04/14 02:16:52;;;;;;;8.10;3.72;;;;;;;1.46;100.00;100545.94;5024404;28;20134;-71
2023/04/14 02:19:20;;;;;;;6.10;3.78;;;;;;;1.40;100.00;100548.97;5035484;28;20191;-72
2023/04/14 02:21:49;;;;;;;10.23;5.15;;;;;;;1.38;100.00;100548.25;5035615;28;20060;-72
2023/04/14 02:24:15;;;;;;;12.70;4.40;;;;;;;1.39;100.00;100544.69;5018930;28;20025;-70
2023/04/14 02:26:52;;;;;;;11.07;4.65;;;;;;;1.36;100.00;100544.88;5035788;28;20113;-71
2023/04/14 02:29:21;;;;;;;15.82;5.07;;;;;;;1.30;100.00;100534.81;5019149;28;20038;-74
2023/04/14 02:31:55;;;;;;;10.35;4.70;;;;;;;1.32;100.00;100541.63;5035566;28;20554;-75
2023/04/14 02:34:24;;;;;;;26.20;11.07;;;;;;;1.35;100.00;100530.06;5019440;28;20087;-76
2023/04/14 02:36:55;;;;;;;18.00;8.23;;;;;;;1.35;100.00;100537.94;5023593;28;20117;-75
2023/04/14 02:39:33;;;;;;;17.27;7.53;;;;;;;1.32;100.00;100533.75;5024201;28;20510;-75
2023/04/14 02:42:02;;;;;;;17.77;7.25;;;;;;;1.31;100.00;100539.97;5023984;28;20037;-71
2023/04/14 02:44:33;;;;;;;13.25;5.82;;;;;;;1.30;100.00;100546.16;5007397;28;20041;-71
2023/04/14 02:47:05;;;;;;;17.15;7.13;;;;;;;1.32;100.00;100546.06;5021793;28;20037;-71
2023/04/14 02:49:41;;;;;;;13.25;5.03;;;;;;;1.25;100.00;100545.66;5034971;28;20053;-73
2023/04/14 02:52:10;;;;;;;18.98;8.05;;;;;;;1.20;100.00;100548.59;5007296;28;20587;-72
2023/04/14 02:54:39;;;;;;;11.05;6.15;;;;;;;1.20;100.00;100545.13;5023539;28;20025;-74
2023/04/14 02:57:05;;;;;;;11.15;5.55;;;;;;;1.20;100.00;100551.22;5018833;28;20028;-71
2023/04/14 02:59:35;;;;;;;12.35;5.15;;;;;;;1.22;100.00;100545.88;5007658;28;20434;-72
2023/04/14 03:02:04;;;;;;;12.55;6.00;;;;;;;1.30;100.00;100553.22;5034753;28;20029;-73
2023/04/14 03:04:36;;;;;;;12.30;5.28;;;;;;;1.33;100.00;100551.19;5034597;28;20033;-73
2023/04/14 03:07:08;;;;;;;11.35;5.38;;;;;;;1.35;100.00;100545.84;5023653;28;20029;-75
2023/04/14 03:09:34;;;;;;;12.10;6.25;;;;;;;1.30;100.00;100547.94;5006927;28;20032;-71
2023/04/14 03:12:01;;;;;;;;;;;;;;;1.30;100.00;100545.31;5023608;28;20036;-71
2023/04/14 03:14:30;;;;;;;12.77;6.30;;;;;;;1.30;100.00;100545.31;5007086;28;19999;-72
2023/04/14 03:16:57;;;;;;;8.13;4.65;;;;;;;1.31;100.00;100547.00;5023421;28;20112;-73
2023/04/14 03:19:25;;;;;;;10.43;5.97;;;;;;;1.34;100.00;100554.69;5023015;28;20040;-72
2023/04/14 03:21:52;;;;;;;13.07;5.82;;;;;;;1.38;100.00;100553.50;5023034;28;20534;-74
2023/04/14 03:24:23;;;;;;;15.82;6.38;;;;;;;1.42;100.00;100563.69;5024327;28;20056;-72
2023/04/14 03:26:56;;;;;;;12.60;6.20;;;;;;;1.40;100.00;100562.13;5022912;28;20549;-71
2023/04/14 03:29:30;;;;;;;11.32;6.50;;;;;;;1.37;100.00;100567.63;5024591;28;20152;-72
2023/04/14 03:31:59;;;;;;;11.45;6.22;;;;;;;1.34;100.00;100570.47;5004559;28;20065;-75
2023/04/14 03:34:28;;;;;;;11.05;5.43;;;;;;;1.29;100.00;100568.16;5011101;28;20039;-73
2023/04/14 03:36:56;;;;;;;12.40;5.63;;;;;;;1.22;100.00;100566.91;5025528;28;20037;-73
2023/04/14 03:39:26;;;;;;;10.32;4.65;;;;;;;1.20;100.00;100561.75;5026949;28;20030;-71
2023/04/14 03:41:54;;;;;;;9.40;5.10;;;;;;;1.20;100.00;100556.47;5010703;28;20017;-71
2023/04/14 03:44:22;;;;;;;14.73;6.43;;;;;;;1.23;100.00;100561.53;5010637;28;20041;-73
2023/04/14 03:46:49;;;;;;;10.95;4.90;;;;;;;1.24;100.00;100563.22;5021907;28;20029;-71
2023/04/14 03:49:16;;;;;;;9.00;5.00;;;;;;;1.24;100.00;100557.09;5038376;28;20033;-72
2023/04/14 03:51:46;;;;;;;12.95;5.90;;;;;;;1.31;100.00;100568.91;5038183;28;20499;-73
2023/04/14 03:54:15;;;;;;;17.48;6.93;;;;;;;1.33;100.00;100579.28;5021084;28;20037;-75
2023/04/14 03:56:44;;;;;;;14.00;7.07;;;;;;;1.28;100.00;100571.72;5027116;28;20029;-73
2023/04/14 03:59:15;;;;;;;14.10;6.10;;;;;;;1.24;100.00;100576.38;5006765;28;20411;-72
2023/04/14 04:01:43;;;;;;;20.30;7.47;;;;;;;1.22;100.00;100580.91;5027001;28;20116;-74
2023/04/14 04:04:10;;;;;;;16.00;7.03;;;;;;;1.29;100.00;100583.94;5026060;28;20034;-74
2023/04/14 04:06:36;;;;;;;15.35;6.45;;;;;;;1.34;100.00;100600.25;5038073;28;20025;-75
2023/04/14 04:09:03;;;;;;;12.38;6.85;;;;;;;1.32;100.00;100596.88;5026404;28;20025;-72
2023/04/14 04:11:32;;;;;;;10.70;6.00;;;;;;;1.32;100.00;100596.03;5038270;28;20116;-71
2023/04/14 04:14:00;;;;;;;15.48;6.72;;;;;;;1.39;100.00;100597.28;5027658;28;20041;-70
2023/04/14 04:16:27;;;;;;;12.13;6.35;;;;;;;1.39;100.00;100600.75;5038224;28;20033;-72
2023/04/14 04:18:53;;;;;;;12.40;6.35;;;;;;;1.41;100.00;100606.75;5009895;28;20025;-71
2023/04/14 04:21:27;;;;;;;9.60;5.70;;;;;;;1.42;100.00;100618.13;5011023;28;20057;-71
2023/04/14 04:23:55;;;;;;;10.85;5.68;;;;;;;1.39;100.00;100615.72;5020473;28;20040;-71
2023/04/14 04:26:24;;;;;;;10.05;5.65;;;;;;;1.40;100.00;100615.56;5010423;28;20030;-70
2023/04/14 04:28:50;;;;;;;15.45;5.90;;;;;;;1.47;100.00;100623.91;5025566;28;20398;-72
2023/04/14 04:31:17;;;;;;;11.48;5.32;;;;;;;1.47;100.00;100621.25;5026323;28;20514;-74
2023/04/14 04:33:45;;;;;;;10.90;5.80;;;;;;;1.45;100.00;100610.88;5025550;28;20033;-73
2023/04/14 04:36:13;;;;;;;16.90;7.93;;;;;;;1.49;100.00;100614.09;5020499;28;20033;-71
2023/04/14 04:38:41;;;;;;;16.50;8.23;;;;;;;1.51;100.00;100612.22;5008064;28;20040;-74
2023/04/14 04:41:19;;;;;;;15.35;6.30;;;;;;;1.56;100.00;100620.63;5036651;28;20409;-72
2023/04/14 04:43:44;;;;;;;12.60;5.97;;;;;;;1.60;100.00;100614.19;5025544;28;20030;-72
2023/04/14 04:46:47;;;;;;;9.95;5.55;;;;;;;1.68;100.00;100621.53;5027525;28;20060;-72
2023/04/14 04:49:14;;;;;;;12.32;6.47;;;;;;;1.75;100.00;100619.31;5020504;28;20037;-71
2023/04/14 04:51:40;;;;;;;18.40;6.72;;;;;;;1.81;100.00;100625.00;5025964;28;20039;-74
2023/04/14 04:54:05;;;;;;;11.68;6.20;;;;;;;1.88;100.00;100633.31;5025407;28;20033;-75
2023/04/14 04:56:31;;;;;;;25.92;11.35;;;;;;;1.88;100.00;100630.69;5025657;28;20039;-72
2023/04/14 04:59:01;;;;;;;15.32;7.47;;;;;;;1.96;100.00;100644.13;5025442;28;20037;-71
2023/04/14 05:01:26;;;;;;;16.17;9.07;;;;;;;2.04;100.00;100654.13;5009324;28;20128;-71
2023/04/14 05:03:52;;;;;;;22.73;11.13;;;;;;;2.10;100.00;100649.22;5019547;28;20120;-75
2023/04/14 05:06:17;;;;;;;16.08;8.40;;;;;;;2.20;100.00;100652.06;5026103;28;20060;-70
2023/04/14 05:08:43;;;;;;;14.00;7.05;;;;;;;2.32;100.00;100647.72;5026276;28;20087;-72
2023/04/14 05:11:08;;;;;;;10.97;5.93;;;;;;;2.50;100.00;100659.50;5026505;28;20071;-72
2023/04/14 05:13:34;;;;;;;15.32;6.82;;;;;;;2.63;100.00;100653.34;5025929;28;20022;-73
2023/04/14 05:16:03;;;;;;;11.77;6.07;;;;;;;2.70;100.00;100652.78;5025931;28;20103;-70
2023/04/14 05:18:30;;;;;;;16.90;8.82;;;;;;;2.73;100.00;100644.63;5027292;28;20029;-72
2023/04/14 05:21:00;;;;;;;21.38;6.78;;;;;;;2.68;100.00;100643.31;5043084;28;20124;-71
2023/04/14 05:23:25;;;;;;;14.10;5.63;;;;;;;2.80;100.00;100650.28;5026883;28;20034;-71
2023/04/14 05:25:51;;;;;;;18.80;8.73;;;;;;;2.96;100.00;100661.38;5027176;28;20022;-71
2023/04/14 05:28:16;;;;;;;11.20;6.97;;;;;;;3.16;100.00;100678.34;5026093;28;20030;-72
2023/04/14 05:30:41;;;;;;;14.97;6.20;;;;;;;3.30;100.00;100679.06;5026440;28;20044;-71
2023/04/14 05:33:07;;;;;;;12.83;5.80;;;;;;;3.27;100.00;100674.88;5005504;28;20026;-72
2023/04/14 05:35:32;;;;;;;9.32;5.50;;;;;;;3.46;100.00;100673.47;5022614;28;20414;-72
2023/04/14 05:37:58;;;;;;;11.37;5.70;;;;;;;3.63;100.00;100677.44;5025744;28;20029;-71
2023/04/14 05:40:23;;;;;;;8.57;5.03;;;;;;;3.80;100.00;100677.81;5026221;28;20148;-73
2023/04/14 05:42:48;;;;;;;9.57;5.50;;;;;;;3.96;100.00;100682.72;5023508;28;20120;-73
2023/04/14 05:45:14;;;;;;;8.17;5.00;;;;;;;4.10;100.00;100694.84;5018041;28;20128;-75
2023/04/14 05:47:39;;;;;;;16.23;7.47;;;;;;;4.38;100.00;100687.34;5025596;28;20065;-73
2023/04/14 05:50:09;;;;;;;13.07;6.82;;;;;;;4.86;100.00;100689.56;5026571;28;20488;-72
2023/04/14 05:52:34;;;;;;;31.80;7.53;;;;;;;5.34;100.00;100686.44;5021821;28;20052;-73
2023/04/14 05:55:00;;;;;;;11.30;5.80;;;;;;;6.12;100.00;100695.63;5007408;28;20034;-73
2023/04/14 05:57:25;;;;;;;9.27;5.20;;;;;;;6.84;100.00;100682.19;5025474;28;20039;-72
2023/04/14 05:59:51;;;;;;;7.32;4.20;;;;;;;7.25;100.00;100659.78;5026435;28;20088;-72
2023/04/14 06:02:16;;;;;;;6.07;3.50;;;;;;;7.43;100.00;100635.97;5026502;28;20128;-72
2023/04/14 06:04:41;;;;;;;15.70;8.07;;;;;;;7.47;100.00;100605.50;5026544;28;20066;-72
2023/04/14 06:07:07;;;;;;;13.70;7.30;;;;;;;7.58;100.00;100594.66;5024636;28;20071;-72
2023/04/14 06:09:32;;;;;;;6.40;4.17;;;;;;;7.57;100.00;100568.25;5025163;28;20025;-72
2023/04/14 06:11:57;;;;;;;6.47;3.37;;;;;;;7.68;100.00;100559.22;5026158;28;20601;-71
2023/04/14 06:14:23;;;;;;;9.97;3.27;;;;;;;7.69;100.00;100526.38;5026092;28;20040;-73
2023/04/14 06:16:49;;;;;;;7.53;3.40;;;;;;;7.44;100.00;100498.69;5024919;28;20037;-73
2023/04/14 06:19:17;;;;;;;6.28;4.00;;;;;;;7.93;100.00;100513.34;5024379;28;20036;-73
2023/04/14 06:21:42;;;;;;;6.13;3.95;;;;;;;8.61;100.00;100514.59;5025965;28;20041;-74
2023/04/14 06:24:08;;;;;;;5.40;3.17;;;;;;;9.23;100.00;100480.69;5023470;28;20037;-71
2023/04/14 06:26:33;;;;;;;5.60;3.27;;;;;;;9.61;100.00;100414.53;5024776;28;20128;-73
2023/04/14 06:28:59;;;;;;;4.23;3.00;;;;;;;9.87;100.00;100326.38;5023106;28;20061;-76
2023/04/14 06:31:24;;;;;;;4.32;3.08;;;;;;;9.90;100.00;100245.22;5008489;28;20385;-74
2023/04/14 06:33:51;;;;;;;8.40;3.40;;;;;;;10.01;100.00;100166.69;5023406;28;20041;-72
2023/04/14 06:36:17;;;;;;;4.93;3.00;;;;;;;10.33;100.00;100149.75;5023950;28;20079;-71
2023/04/14 06:38:43;;;;;;;4.95;2.90;;;;;;;10.51;100.00;100083.56;5024801;28;20061;-72
2023/04/14 06:41:08;;;;;;;5.22;2.90;;;;;;;10.76;100.00;100012.09;5025012;28;20033;-71
2023/04/14 06:43:33;;;;;;;5.47;2.87;;;;;;;10.87;100.00;99930.72;5034492;28;20073;-76
2023/04/14 06:45:59;;;;;;;4.63;2.53;;;;;;;10.56;100.00;99808.94;5024901;28;20034;-75
2023/04/14 06:48:26;;;;;;;4.33;3.03;;;;;;;10.15;100.00;99748.00;5034572;28;20114;-73
2023/04/14 06:50:55;;;;;;;4.28;2.97;;;;;;;9.65;100.00;99722.06;5024455;28;20479;-72
2023/04/14 06:53:22;;;;;;;6.55;3.03;;;;;;;9.36;100.00;99779.56;5019101;28;20176;-71
2023/04/14 06:55:57;;;;;;;11.85;4.30;;;;;;;8.78;100.00;99796.91;5022936;28;20040;-73
2023/04/14 06:58:29;;;;;;;12.27;3.38;;;;;;;8.50;100.00;99942.84;5022152;28;20037;-74
2023/04/14 07:00:56;;;;;;;9.00;3.08;;;;;;;8.42;100.00;100018.19;5021275;28;20138;-74
2023/04/14 07:03:21;;;;;;;5.63;2.70;;;;;;;8.29;100.00;100050.56;5006585;28;20026;-72
2023/04/14 07:05:47;;;;;;;7.78;2.92;;;;;;;8.31;100.00;100108.91;5023694;28;20208;-74
2023/04/14 07:08:12;;;;;;;5.10;2.40;;;;;;;8.32;100.00;100158.44;5040011;28;20065;-73
2023/04/14 07:10:37;;;;;;;5.90;3.03;;;;;;;8.58;100.00;100211.59;5005443;28;20058;-71
2023/04/14 07:13:03;;;;;;;8.97;3.13;;;;;;;8.74;100.00;100200.16;5023181;28;20099;-74
2023/04/14 07:15:28;;;;;;;5.67;2.77;;;;;;;8.89;100.00;100166.53;5035121;28;20037;-73
2023/04/14 07:17:54;;;;;;;8.65;2.78;;;;;;;8.90;100.00;100114.97;5033141;28;20120;-70
2023/04/14 07:20:19;;;;;;;9.57;3.13;;;;;;;8.95;100.00;100106.50;5024733;28;20083;-74
2023/04/14 07:22:45;;;;;;;5.10;2.40;;;;;;;8.86;100.00;100077.19;5024363;28;20029;-74
2023/04/14 07:25:10;;;;;;;5.47;2.20;;;;;;;8.97;100.00;100099.19;5039752;28;20489;-74
2023/04/14 07:27:36;;;;;;;5.23;2.47;;;;;;;9.02;100.00;100083.53;5024649;28;20031;-75
2023/04/14 07:30:01;;;;;;;9.17;3.53;;;;;;;9.30;100.00;100124.75;5023000;28;20291;-74
2023/04/14 07:32:27;;;;;;;9.55;2.85;;;;;;;9.36;100.00;100115.25;5019935;28;20037;-74
2023/04/14 07:34:52;;;;;;;10.47;2.60;;;;;;;9.41;100.00;100107.59;5039606;28;20045;-73
2023/04/14 07:37:18;;;;;;;5.13;2.90;;;;;;;9.49;100.00;100101.41;5023680;28;20152;-74
2023/04/14 07:39:43;;;;;;;6.88;2.58;;;;;;;9.61;100.00;100099.19;5024214;28;20444;-73
2023/04/14 07:42:08;;;;;;;9.83;3.70;;;;;;;9.59;100.00;100039.91;5022609;28;20479;-72
2023/04/14 07:44:34;;;;;;;9.17;2.57;;;;;;;9.64;100.00;100019.72;5024172;28;20390;-72
2023/04/14 07:46:59;;;;;;;9.83;2.97;;;;;;;9.71;100.00;100017.19;5018670;28;20033;-74
2023/04/14 07:49:25;;;;;;;8.53;3.30;;;;;;;9.79;100.00;100009.16;5024294;28;20466;-74
2023/04/14 07:51:50;;;;;;;16.10;4.30;;;;;;;9.94;100.00;100019.88;5023932;28;20048;-73
2023/04/14 07:54:15;;;;;;;10.87;3.13;;;;;;;10.04;100.00;100001.81;5035255;28;20029;-74
2023/04/14 07:56:41;;;;;;;8.97;2.67;;;;;;;10.13;100.00;99966.06;5024273;28;20033;-74
2023/04/14 07:59:06;;;;;;;11.60;2.67;;;;;;;10.31;100.00;99948.97;5023584;28;20764;-73
2023/04/14 08:01:31;;;;;;;8.73;2.37;;;;;;;10.33;100.00;99931.78;5023643;28;20513;-74
2023/04/14 08:03:57;;;;;;;13.93;2.87;;;;;;;10.34;100.00;99912.06;5034859;28;20202;-74
2023/04/14 08:06:22;;;;;;;8.60;2.60;;;;;;;10.44;100.00;99849.59;5023090;28;20045;-74
2023/04/14 08:08:48;;;;;;;10.67;2.30;;;;;;;10.52;100.00;99788.16;5017215;28;20048;-73
2023/04/14 08:11:13;;;;;;;12.43;2.50;;;;;;;10.38;100.00;99712.44;5022874;28;20333;-74
2023/04/14 08:13:38;;;;;;;6.17;1.90;;;;;;;10.55;100.00;99710.38;5022700;28;20579;-71
2023/04/14 08:16:04;;;;;;;14.83;3.63;;;;;;;10.39;100.00;99606.53;5022882;28;20476;-71
2023/04/14 08:18:30;;;;;;;10.50;2.60;;;;;;;10.46;100.00;99594.09;5025872;28;20125;-73
2023/04/14 08:20:55;;;;;;;9.55;2.38;;;;;;;10.51;100.00;99587.19;5027871;28;20128;-75
2023/04/14 08:23:21;;;;;;;7.03;2.00;;;;;;;10.43;100.00;99552.59;5010134;28;20033;-73
2023/04/14 08:25:47;;;;;;;8.93;3.38;;;;;;;10.43;100.00;99464.56;5027791;28;20021;-73
2023/04/14 08:28:12;;;;;;;13.15;2.63;;;;;;;10.46;100.00;99327.25;5022547;28;20333;-75
2023/04/14 08:30:38;;;;;;;11.27;2.80;;;;;;;10.70;100.00;99409.53;5026104;28;20055;-74
2023/04/14 08:33:03;;;;;;;14.27;2.03;;;;;;;10.68;100.00;99354.69;5026042;28;20120;-72
2023/04/14 08:35:29;;;;;;;12.43;2.23;;;;;;;10.76;100.00;99407.91;5028185;28;20040;-71
2023/04/14 08:37:54;;;;;;;17.00;3.27;;;;;;;10.69;100.00;99318.97;5039208;28;20120;-74
2023/04/14 08:40:21;;;;;;;10.60;2.42;;;;;;;10.88;100.00;99390.31;5025816;28;20399;-73
2023/04/14 08:42:46;;;;;;;13.52;2.85;;;;;;;10.94;100.00;99378.03;5025891;28;20034;-74
2023/04/14 08:45:12;;;;;;;10.23;2.63;;;;;;;10.74;100.00;99340.53;5027965;28;20064;-74
2023/04/14 08:47:39;;;;;;;8.40;2.10;;;;;;;10.80;100.00;99265.00;5009832;28;20033;-74
2023/04/14 08:50:09;;;;;;;16.88;2.53;;;;;;;10.89;100.00;99295.84;5026088;28;20040;-74
2023/04/14 08:52:36;;;;;;;6.63;2.58;;;;;;;10.95;100.00;99300.38;5027463;28;20091;-74
2023/04/14 08:55:03;;;;;;;14.27;3.88;;;;;;;11.03;100.00;99295.88;5026036;28;20462;-75
2023/04/14 08:57:30;;;;;;;8.32;2.50;;;;;;;11.05;100.00;99299.19;5025909;28;20466;-71
2023/04/14 08:59:56;;;;;;;13.75;2.80;;;;;;;10.94;100.00;99268.56;5026821;28;20056;-75
2023/04/14 09:02:26;;;;;;;11.10;2.78;;;;;;;10.96;100.00;99266.50;5036933;28;20025;-74
2023/04/14 09:04:52;;;;;;;10.85;2.55;;;;;;;11.06;100.00;99271.47;5026830;28;20080;-74
2023/04/14 09:07:19;;;;;;;10.88;3.17;;;;;;;11.00;100.00;99222.34;5027218;28;20043;-74
2023/04/14 09:09:44;;;;;;;14.85;2.38;;;;;;;10.97;100.00;99257.47;5025397;28;20079;-74
2023/04/14 09:12:12;;;;;;;9.47;2.03;;;;;;;10.87;100.00;99171.59;5026952;28;20060;-74
2023/04/14 09:14:38;;;;;;;12.95;4.40;;;;;;;10.84;100.00;99142.63;5009151;28;20017;-74
2023/04/14 09:17:04;;;;;;;9.40;3.28;;;;;;;10.88;100.00;99208.75;5026976;28;20039;-71
2023/04/14 09:19:30;;;;;;;15.10;4.10;;;;;;;10.93;100.00;99245.53;5026804;28;20390;-74
2023/04/14 09:21:55;;;;;;;17.63;2.45;;;;;;;11.16;100.00;99306.63;5026676;28;20064;-75
2023/04/14 09:24:28;;;;;;;8.68;2.38;;;;;;;11.08;100.00;99272.09;5025490;28;20073;-70
2023/04/14 09:26:54;;;;;;;7.40;1.98;;;;;;;11.09;100.00;99287.06;5023472;28;20045;-72
2023/04/14 09:29:20;;;;;;;9.02;2.22;;;;;;;10.90;100.00;99229.94;5024783;28;20075;-75
2023/04/14 09:31:45;;;;;;;8.90;2.55;;;;;;;10.89;100.00;99242.47;5025349;28;20041;-75
2023/04/14 09:34:19;;;;;;;7.82;2.58;;;;;;;10.79;100.00;99322.09;5025114;28;20029;-75
2023/04/14 09:37:05;;;;;;;5.88;1.90;;;;;;;11.01;100.00;99399.44;5008455;28;20056;-74
2023/04/14 09:39:34;;;;;;;5.63;2.00;;;;;;;11.24;100.00;99506.81;5021793;28;20033;-74
2023/04/14 09:42:01;;;;;;;8.48;1.67;;;;;;;11.21;100.00;99349.56;5026102;28;20044;-75
2023/04/14 09:44:27;;;;;;;11.20;2.65;;;;;;;11.27;100.00;99452.16;5026285;28;20079;-75
2023/04/14 09:47:01;;;;;;;10.90;2.55;;;;;;;11.44;100.00;99498.06;5036144;28;20041;-74
2023/04/14 09:49:28;;;;;;;7.43;1.98;;;;;;;11.38;100.00;99447.06;5008269;28;20045;-74
2023/04/14 09:51:54;;;;;;;9.20;1.83;;;;;;;11.35;100.00;99394.00;5024779;28;20040;-72
2023/04/14 09:54:26;;;;;;;12.48;2.72;;;;;;;11.30;100.00;99276.22;5024782;28;20079;-74
2023/04/14 09:56:52;;;;;;;7.47;1.95;;;;;;;11.31;100.00;99272.56;5024915;28;20064;-74
2023/04/14 09:59:31;;;;;;;3.15;1.63;;;;;;;11.49;100.00;99245.22;5037946;28;20040;-74
2023/04/14 10:01:58;;;;;;;6.30;2.30;;;;;;;11.51;100.00;99242.34;5024373;28;20517;-75
2023/04/14 10:04:25;;;;;;;7.90;2.22;;;;;;;11.49;100.00;99295.16;5025561;28;20350;-71
2023/04/14 10:06:54;;;;;;;15.25;2.22;;;;;;;11.12;100.00;99113.91;5025839;28;20564;-74
2023/04/14 10:09:21;;;;;;;6.88;2.25;;;;;;;11.31;100.00;99328.66;5026043;28;20112;-74
2023/04/14 10:12:05;;;;;;;3.97;1.50;;;;;;;11.51;100.00;99341.22;5008065;28;20086;-74
2023/04/14 10:14:32;;;;;;;7.95;2.35;;;;;;;11.38;100.00;99224.47;5021356;28;20021;-74
2023/04/14 10:16:58;;;;;;;;;;;;;;;11.53;100.00;99190.31;5024557;28;20098;-74
2023/04/14 10:19:23;;;;;;;9.70;1.83;;;;;;;11.73;100.00;99202.84;5025998;28;19913;-72
2023/04/14 10:21:49;;;;;;;10.43;2.23;;;;;;;11.48;100.00;99103.78;5007808;28;20110;-72
2023/04/14 10:24:15;;;;;;;7.80;2.28;;;;;;;11.67;100.00;99161.72;5007653;28;20106;-75
2023/04/14 10:26:41;;;;;;;7.93;2.35;;;;;;;11.77;100.00;99174.66;5025603;28;20442;-75
2023/04/14 10:29:07;;;;;;;5.60;2.30;;;;;;;11.94;100.00;99201.81;5018552;28;20039;-74
2023/04/14 10:31:37;;;;;;;6.70;2.22;;;;;;;11.85;100.00;99088.91;5024043;28;20021;-75
2023/04/14 10:34:10;;;;;;;7.38;2.40;;;;;;;11.70;99.85;98960.00;5024764;28;20033;-73
2023/04/14 10:36:36;;;;;;;12.38;2.45;;;;;;;11.66;99.73;98997.03;5025308;28;20031;-73
2023/04/14 10:39:04;;;;;;;6.82;1.65;;;;;;;11.86;100.00;99137.84;5023669;28;20111;-74
2023/04/14 10:41:55;;;;;;;5.93;1.88;;;;;;;11.88;100.00;99171.38;5024176;28;20037;-73
2023/04/14 10:44:24;;;;;;;8.82;2.35;;;;;;;11.77;99.22;99068.53;5024660;28;20051;-71
2023/04/14 10:46:50;;;;;;;6.45;2.50;;;;;;;11.69;98.27;99004.63;5007384;28;20025;-73
2023/04/14 10:49:17;;;;;;;5.75;1.63;;;;;;;11.71;96.50;98884.13;5025146;28;20545;-73
2023/04/14 10:51:43;;;;;;;8.68;1.95;;;;;;;11.60;96.88;98907.00;5023403;28;20034;-70
2023/04/14 10:54:17;;;;;;;6.07;1.60;;;;;;;11.75;95.51;98840.72;5023326;28;20041;-69
2023/04/14 10:57:11;;;;;;;7.07;1.95;;;;;;;12.06;95.57;98921.13;5020082;28;20029;-73
2023/04/14 10:59:41;;;;;;;5.43;1.23;;;;;;;12.28;95.51;99000.00;5021346;28;20036;-76
2023/04/14 11:02:26;;;;;;;4.63;1.23;;;;;;;11.98;92.64;98668.16;5023607;28;20106;-71
2023/04/14 11:05:10;;;;;;;5.35;1.30;;;;;;;12.20;93.90;98853.16;5023533;28;20038;-76
2023/04/14 11:07:46;;;;;;;6.15;1.58;;;;;;;12.23;91.56;98714.38;5007453;28;20521;-75
2023/04/14 11:10:17;;;;;;;6.20;2.38;;;;;;;12.28;92.34;98806.56;5020243;28;20041;-75
2023/04/14 11:12:44;;;;;;;5.88;1.77;;;;;;;12.11;92.26;98795.59;5023616;28;20507;-74
2023/04/14 11:15:10;;;;;;;7.28;1.30;;;;;;;11.92;90.52;98581.66;5040285;28;20025;-75
2023/04/14 11:17:39;;;;;;;;;;;;;;;12.01;90.44;98646.31;5025537;28;20067;-75
2023/04/14 11:20:15;;;;;;;5.38;1.83;;;;;;;12.09;91.12;98777.09;5023239;28;19916;-75
2023/04/14 11:22:41;;;;;;;;;;;;;;;12.12;89.65;98610.00;5023657;28;20125;-76
2023/04/14 11:25:09;;;;;;;6.53;1.95;;;;;;;12.20;90.27;98746.94;5023205;28;19961;-73
2023/04/14 11:27:36;;;;;;;7.00;1.63;;;;;;;12.20;90.49;98803.13;5006921;28;20029;-73
2023/04/14 11:30:02;;;;;;;6.28;2.05;;;;;;;11.78;88.94;98518.66;5006757;28;20017;-73